CAT,Max TemperatureF,Mean TemperatureF,Min TemperatureF,Max Dew PointF,MeanDew PointF,Min DewpointF,Max Humidity, Mean Humidity, Min Humidity, Max Sea Level PressureIn, Mean Sea Level PressureIn, Min Sea Level PressureIn, Max VisibilityMiles, Mean VisibilityMiles, Min VisibilityMiles, Max Wind SpeedMPH, Mean Wind SpeedMPH, Max Gust SpeedMPH,PrecipitationIn, CloudCover, Events, WindDirDegrees
2013-10-1,80,68,55,48,44,39,77,44,19,30.33,30.25,30.15,6,6,6,20,14,,0.00,,,114
2013-10-2,84,70,57,43,32,12,55,28,4,30.33,30.22,30.12,6,6,6,17,11,,0.00,,,115
2013-10-3,89,72,55,28,24,19,31,16,4,30.21,30.12,30.04,6,6,6,15,8,,0.00,,,120
2013-10-4,92,78,64,28,23,18,26,12,4,30.15,30.08,30.01,6,6,6,17,9,,0.00,,,90
2013-10-5,95,80,64,39,28,21,27,15,4,30.12,30.06,29.95,6,6,6,14,7,,0.00,,,91
2013-10-6,98,83,68,41,32,27,29,16,5,30.09,30.03,29.95,6,6,6,17,9,,0.00,1,,101
2013-10-7,97,83,69,52,34,30,29,16,4,30.09,30.04,29.98,6,6,6,22,8,,0.00,2,,106
2013-10-8,95,67,39,54,44,34,88,29,11,30.12,30.05,29.98,6,6,6,18,10,,0.00,2,,83
2013-10-9,98,83,68,48,42,36,40,25,9,30.09,30.03,29.95,6,6,6,15,9,,0.00,3,,75
2013-10-10,96,82,68,43,37,30,33,18,6,30.09,30.03,29.95,6,6,6,14,7,,0.00,2,,98
2013-10-11,98,83,68,41,35,31,27,17,10,30.12,30.03,29.95,6,6,6,16,8,,0.00,2,,99
2013-10-12,100,85,70,43,37,34,29,17,6,30.04,29.95,29.86,6,6,6,13,6,,0.00,4,,49
2013-10-13,95,86,78,44,25,18,19,10,4,30.01,29.95,29.89,6,6,6,15,9,,0.00,4,,170
2013-10-14,98,84,71,52,34,9,35,15,4,30.06,29.98,29.92,6,6,6,16,11,,0.00,,,136
2013-10-15,98,80,61,55,53,52,72,45,17,30.18,30.09,30.01,6,6,6,18,14,,0.00,2,Rain-Thunderstorm,86
2013-10-16,95,86,77,59,54,50,44,33,22,30.21,30.07,29.86,6,6,6,13,7,,0.00,1,Thunderstorm,18
2013-10-17,100,87,74,57,43,37,50,23,7,30.09,30.01,29.92,6,6,6,18,7,,0.00,1,,111
2013-10-18,98,88,77,44,40,37,24,17,7,30.04,29.95,29.86,6,6,6,15,5,,0.00,,,16
2013-10-19,98,89,80,41,39,36,23,15,7,29.98,29.91,29.83,6,6,6,9,4,,0.00,,,334
2013-10-20,97,88,78,54,46,43,42,22,12,29.98,29.87,29.80,6,6,6,17,11,,0.00,2,,16
2013-10-21,94,82,71,59,51,38,64,33,10,30.18,29.89,29.80,6,6,6,20,6,,0.00,2,Rain,282
2013-10-22,88,77,66,34,26,19,26,14,4,30.06,29.99,29.92,6,6,6,15,10,,0.00,1,,176
2013-10-23,93,76,59,34,26,21,25,14,5,30.09,30.02,29.95,6,6,6,16,9,,0.00,,,141
2013-10-24,95,82,68,59,53,41,73,42,21,30.18,30.05,29.95,6,6,6,22,13,,0.00,2,Thunderstorm,68
2013-10-25,87,76,64,62,60,54,88,57,35,30.15,30.04,29.95,6,6,6,12,9,,0.00,2,Rain-Thunderstorm,41
2013-10-26,96,84,71,61,56,50,69,41,20,30.01,29.94,29.86,6,6,6,13,5,,0.00,2,,344
2013-10-27,100,84,69,59,48,28,64,30,11,30.06,29.94,29.89,6,6,6,16,6,,0.00,2,,309
2013-10-28,102,88,75,50,37,30,41,15,4,30.04,29.94,29.86,6,6,6,14,9,,0.00,2,,138
2013-10-29,101,84,68,54,43,34,36,23,7,29.95,29.87,29.80,6,6,6,10,6,,0.00,2,,45
2013-10-30,99,86,72,54,50,41,43,27,12,29.89,29.81,29.74,6,6,6,20,8,,0.00,2,,358
2013-10-31,97,85,73,55,51,48,44,29,12,29.86,29.78,29.71,6,6,6,18,9,,0.00,1,,359